createdAt,value
2023-01-29T00:01:55.281Z,22.78
2023-01-29T00:04:23.067Z,22.73
2023-01-29T00:06:50.169Z,22.73
2023-01-29T00:09:19.211Z,22.73
2023-01-29T00:11:46.305Z,22.71
2023-01-29T00:14:13.602Z,22.72
2023-01-29T00:16:40.845Z,22.72
2023-01-29T00:19:07.983Z,22.78
2023-01-29T00:21:35.096Z,22.81
2023-01-29T00:24:02.421Z,22.79
2023-01-29T00:26:30.948Z,22.81
2023-01-29T00:28:58.072Z,22.83
2023-01-29T00:31:25.384Z,22.84
2023-01-29T00:33:52.940Z,22.81
2023-01-29T00:36:21.580Z,22.71
2023-01-29T00:38:54.167Z,22.79
2023-01-29T00:41:21.969Z,22.51
2023-01-29T00:43:50.518Z,22.75
2023-01-29T00:46:17.822Z,22.73
2023-01-29T00:48:44.952Z,22.72
2023-01-29T00:51:12.029Z,22.69
2023-01-29T00:53:39.137Z,22.67
2023-01-29T00:56:07.009Z,22.65
2023-01-29T00:58:34.119Z,22.64
2023-01-29T01:01:02.894Z,22.63
2023-01-29T01:03:30.485Z,22.55
2023-01-29T01:06:05.198Z,22.59
2023-01-29T01:08:32.575Z,22.58
2023-01-29T01:11:01.715Z,22.68
2023-01-29T01:13:29.590Z,22.69
2023-01-29T01:15:56.764Z,22.70
2023-01-29T01:18:25.308Z,22.70
2023-01-29T01:20:57.638Z,22.72
2023-01-29T01:23:24.862Z,22.73
2023-01-29T01:25:51.953Z,22.69
2023-01-29T01:28:19.170Z,22.67
2023-01-29T01:30:46.346Z,22.65
2023-01-29T01:33:13.598Z,22.62
2023-01-29T01:35:42.052Z,22.61
2023-01-29T01:38:09.257Z,22.61
2023-01-29T01:40:36.387Z,22.60
2023-01-29T01:43:03.515Z,22.60
2023-01-29T01:45:32.216Z,22.52
2023-01-29T01:48:04.356Z,22.54
2023-01-29T01:50:35.507Z,22.53
2023-01-29T01:53:07.938Z,22.51
2023-01-29T01:55:40.658Z,22.49
2023-01-29T01:58:11.743Z,22.50
2023-01-29T02:00:39.730Z,22.53
2023-01-29T02:03:21.516Z,22.57
2023-01-29T02:05:49.794Z,22.58
2023-01-29T02:08:24.417Z,22.61
2023-01-29T02:10:52.027Z,22.63
2023-01-29T02:13:19.239Z,22.63
2023-01-29T02:15:46.952Z,22.61
2023-01-29T02:18:16.269Z,22.51
2023-01-29T02:20:49.151Z,22.57
2023-01-29T02:23:43.244Z,22.54
2023-01-29T02:26:31.950Z,22.54
2023-01-29T02:29:07.058Z,22.56
2023-01-29T02:31:41.560Z,22.58
2023-01-29T02:34:17.303Z,22.55
2023-01-29T02:36:49.533Z,22.48
2023-01-29T02:39:23.417Z,22.47
2023-01-29T02:42:02.772Z,22.40
2023-01-29T02:44:39.353Z,22.45
2023-01-29T02:47:16.981Z,22.41
2023-01-29T02:49:48.678Z,22.39
2023-01-29T02:52:19.677Z,22.43
2023-01-29T02:54:53.097Z,22.47
2023-01-29T02:57:23.120Z,22.51
2023-01-29T02:59:55.684Z,22.51
2023-01-29T03:02:31.254Z,22.53
2023-01-29T03:05:01.633Z,22.51
2023-01-29T03:07:35.408Z,22.48
2023-01-29T03:10:04.627Z,22.45
2023-01-29T03:12:37.798Z,22.47
2023-01-29T03:15:10.328Z,22.47
2023-01-29T03:17:41.873Z,22.47
2023-01-29T03:20:16.563Z,22.38
2023-01-29T03:22:48.955Z,22.45
2023-01-29T03:25:20.734Z,22.52
2023-01-29T03:27:51.439Z,22.50
2023-01-29T03:30:22.312Z,22.39
2023-01-29T03:32:50.916Z,22.46
2023-01-29T03:35:21.146Z,22.76
2023-01-29T03:37:49.325Z,23.09
2023-01-29T03:40:16.833Z,23.24
2023-01-29T03:43:05.472Z,23.50
2023-01-29T03:45:40.242Z,23.63
2023-01-29T03:48:15.975Z,23.70
2023-01-29T03:50:54.439Z,23.53
2023-01-29T03:53:26.054Z,23.69
2023-01-29T03:55:59.911Z,23.62
2023-01-29T03:58:35.404Z,23.60
2023-01-29T04:01:10.547Z,23.56
2023-01-29T04:03:41.296Z,23.51
2023-01-29T04:06:13.503Z,23.45
2023-01-29T04:08:51.056Z,23.44
2023-01-29T04:11:22.134Z,23.45
2023-01-29T04:13:49.800Z,23.39
2023-01-29T04:16:22.919Z,23.37
2023-01-29T04:18:50.479Z,23.41
2023-01-29T04:21:18.424Z,23.19
2023-01-29T04:23:45.660Z,23.15
2023-01-29T04:26:46.519Z,23.21
2023-01-29T04:29:25.238Z,23.14
2023-01-29T04:32:00.474Z,23.05
2023-01-29T04:34:35.949Z,23.06
2023-01-29T04:37:12.561Z,23.06
2023-01-29T04:39:48.707Z,23.02
2023-01-29T04:42:25.548Z,23.04
2023-01-29T04:45:01.384Z,23.01
2023-01-29T04:47:37.128Z,23.02
2023-01-29T04:50:15.209Z,22.99
2023-01-29T04:52:51.463Z,22.92
2023-01-29T04:55:25.454Z,22.94
2023-01-29T04:58:03.440Z,22.89
2023-01-29T05:00:35.476Z,22.89
2023-01-29T05:03:05.959Z,22.92
2023-01-29T05:05:34.644Z,22.89
2023-01-29T05:08:04.773Z,22.88
2023-01-29T05:10:33.419Z,22.80
2023-01-29T05:13:03.451Z,22.76
2023-01-29T05:15:37.479Z,22.78
2023-01-29T05:18:06.674Z,22.75
2023-01-29T05:20:36.409Z,22.70
2023-01-29T05:23:03.735Z,22.77
2023-01-29T05:25:33.143Z,22.82
2023-01-29T05:28:00.487Z,22.84
2023-01-29T05:30:27.967Z,22.88
2023-01-29T05:32:55.231Z,22.90
2023-01-29T05:35:23.666Z,22.93
2023-01-29T05:37:50.785Z,22.77
2023-01-29T05:40:18.258Z,22.84
2023-01-29T05:42:45.537Z,22.86
2023-01-29T05:45:12.637Z,22.86
2023-01-29T05:47:39.737Z,22.84
2023-01-29T05:50:08.274Z,22.80
2023-01-29T05:52:36.838Z,22.81
2023-01-29T05:55:05.710Z,22.79
2023-01-29T05:57:32.827Z,22.83
2023-01-29T05:59:59.997Z,22.75
2023-01-29T06:02:29.616Z,22.69
2023-01-29T06:04:56.836Z,22.71
2023-01-29T06:07:26.961Z,22.70
2023-01-29T06:09:55.467Z,22.72
2023-01-29T06:12:22.569Z,22.72
2023-01-29T06:14:49.798Z,22.81
2023-01-29T06:17:16.905Z,23.02
2023-01-29T06:19:44.212Z,23.19
2023-01-29T06:22:11.453Z,23.33
2023-01-29T06:24:38.585Z,23.38
2023-01-29T06:27:07.026Z,23.46
2023-01-29T06:29:34.130Z,23.48
2023-01-29T06:32:01.336Z,23.45
2023-01-29T06:34:28.494Z,23.44
2023-01-29T06:36:55.607Z,23.37
2023-01-29T06:39:22.721Z,23.33
2023-01-29T06:41:50.027Z,23.33
2023-01-29T06:44:18.876Z,23.31
2023-01-29T06:46:45.979Z,23.24
2023-01-29T06:49:13.165Z,23.25
2023-01-29T06:51:40.267Z,23.17
2023-01-29T06:54:07.460Z,23.14
2023-01-29T06:56:34.577Z,23.04
2023-01-29T06:59:02.001Z,22.99
2023-01-29T07:01:36.110Z,23.00
2023-01-29T07:04:03.785Z,22.99
2023-01-29T07:06:31.553Z,22.78
2023-01-29T07:08:58.671Z,23.21
2023-01-29T07:11:26.011Z,23.32
2023-01-29T07:13:53.630Z,23.47
2023-01-29T07:16:20.799Z,23.60
2023-01-29T07:18:49.403Z,23.79
2023-01-29T07:21:16.548Z,23.93
2023-01-29T07:23:43.659Z,23.98
2023-01-29T07:26:11.638Z,23.92
2023-01-29T07:28:39.757Z,23.94
2023-01-29T07:31:07.843Z,23.88
2023-01-29T07:33:35.266Z,23.85
2023-01-29T07:36:07.861Z,23.77
2023-01-29T07:38:34.962Z,23.73
2023-01-29T07:41:03.252Z,23.67
2023-01-29T07:43:30.622Z,23.73
2023-01-29T07:46:01.752Z,23.65
2023-01-29T07:48:29.060Z,23.57
2023-01-29T07:50:56.761Z,23.50
2023-01-29T07:53:25.745Z,23.44
2023-01-29T07:55:52.893Z,23.55
2023-01-29T07:58:20.017Z,23.53
2023-01-29T08:00:47.236Z,23.49
2023-01-29T08:03:16.538Z,23.50
2023-01-29T08:05:44.164Z,23.41
2023-01-29T08:08:12.004Z,23.43
2023-01-29T08:10:41.337Z,23.38
2023-01-29T08:13:09.303Z,23.32
2023-01-29T08:15:38.791Z,23.23
2023-01-29T08:18:06.615Z,23.17
2023-01-29T08:20:33.720Z,23.16
2023-01-29T08:23:01.605Z,23.10
2023-01-29T08:25:29.223Z,23.10
2023-01-29T08:27:58.900Z,23.16
2023-01-29T08:30:27.125Z,23.16
2023-01-29T08:32:54.419Z,23.10
2023-01-29T08:35:21.933Z,23.05
2023-01-29T08:37:56.427Z,23.05
2023-01-29T08:40:23.581Z,23.06
2023-01-29T08:42:50.847Z,23.09
2023-01-29T08:45:19.340Z,23.12
2023-01-29T08:47:47.086Z,23.09
2023-01-29T08:50:14.534Z,23.05
2023-01-29T08:52:42.467Z,23.03
2023-01-29T08:55:10.332Z,22.92
2023-01-29T08:57:37.916Z,23.00
2023-01-29T09:00:06.615Z,22.98
2023-01-29T09:02:35.131Z,22.89
2023-01-29T09:05:02.259Z,22.94
2023-01-29T09:07:29.839Z,22.95
2023-01-29T09:09:56.971Z,22.97
2023-01-29T09:12:24.091Z,22.98
2023-01-29T09:14:51.248Z,22.94
2023-01-29T09:17:18.364Z,22.89
2023-01-29T09:19:46.912Z,22.89
2023-01-29T09:22:14.101Z,22.83
2023-01-29T09:24:41.192Z,22.83
2023-01-29T09:27:08.354Z,22.86
2023-01-29T09:29:36.083Z,22.84
2023-01-29T09:32:04.704Z,22.87
2023-01-29T09:34:31.837Z,22.81
2023-01-29T09:37:00.763Z,22.84
2023-01-29T09:39:27.944Z,22.90
2023-01-29T09:42:03.476Z,22.88
2023-01-29T09:44:46.966Z,22.86
2023-01-29T09:47:16.923Z,22.87
2023-01-29T09:49:47.943Z,22.99
2023-01-29T09:52:20.368Z,23.19
2023-01-29T09:54:53.785Z,23.32
2023-01-29T09:57:25.488Z,23.50
2023-01-29T09:59:52.601Z,23.63
2023-01-29T10:02:39.796Z,23.65
2023-01-29T10:05:26.491Z,23.66
2023-01-29T10:08:20.244Z,23.62
2023-01-29T10:10:51.017Z,23.53
2023-01-29T10:13:29.277Z,23.38
2023-01-29T10:16:11.713Z,23.30
2023-01-29T10:18:54.873Z,23.29
2023-01-29T10:21:38.040Z,23.24
2023-01-29T10:24:17.152Z,23.20
2023-01-29T10:26:44.333Z,23.23
2023-01-29T10:29:17.654Z,23.26
2023-01-29T10:31:51.296Z,23.25
2023-01-29T10:34:26.152Z,23.25
2023-01-29T10:36:55.086Z,23.23
2023-01-29T10:39:25.487Z,23.17
2023-01-29T10:42:06.824Z,23.27
2023-01-29T10:44:49.428Z,23.42
2023-01-29T10:47:30.755Z,23.53
2023-01-29T10:50:17.110Z,23.74
2023-01-29T10:53:05.430Z,23.85
2023-01-29T10:55:46.510Z,23.92
2023-01-29T10:58:23.296Z,23.98
2023-01-29T11:00:51.205Z,24.01
2023-01-29T11:03:27.999Z,23.94
2023-01-29T11:06:04.132Z,23.83
2023-01-29T11:08:37.116Z,23.76
2023-01-29T11:11:08.397Z,23.68
2023-01-29T11:13:41.048Z,23.66
2023-01-29T11:16:09.562Z,23.62
2023-01-29T11:18:52.648Z,23.63
2023-01-29T11:21:20.048Z,23.65
2023-01-29T11:23:47.179Z,23.67
2023-01-29T11:26:19.520Z,23.72
2023-01-29T11:28:48.056Z,23.87
2023-01-29T11:31:17.368Z,24.05
2023-01-29T11:33:45.802Z,24.16
2023-01-29T11:36:29.750Z,24.17
2023-01-29T11:39:12.205Z,24.15
2023-01-29T11:41:45.491Z,24.23
2023-01-29T11:44:26.926Z,24.14
2023-01-29T11:46:54.990Z,24.44
2023-01-29T11:49:31.103Z,24.48
2023-01-29T11:52:01.095Z,24.41
2023-01-29T11:54:32.466Z,24.27
2023-01-29T11:57:01.709Z,24.21
2023-01-29T11:59:40.647Z,24.10
2023-01-29T12:02:29.579Z,24.12
2023-01-29T12:05:00.032Z,24.13
2023-01-29T12:07:28.559Z,24.25
2023-01-29T12:09:57.902Z,24.22
2023-01-29T12:12:37.375Z,24.06
2023-01-29T12:15:15.363Z,24.01
2023-01-29T12:17:45.299Z,23.98
2023-01-29T12:20:17.571Z,23.93
2023-01-29T12:22:50.949Z,23.89
2023-01-29T12:25:23.211Z,23.91
2023-01-29T12:27:59.219Z,23.88
2023-01-29T12:30:32.243Z,23.89
2023-01-29T12:33:05.060Z,23.80
2023-01-29T12:35:35.840Z,23.71
2023-01-29T12:38:08.397Z,23.70
2023-01-29T12:40:43.368Z,23.59
2023-01-29T12:43:16.700Z,23.61
2023-01-29T12:45:48.082Z,23.53
2023-01-29T12:48:23.374Z,23.44
2023-01-29T12:50:52.798Z,23.45
2023-01-29T12:53:26.567Z,23.46
2023-01-29T12:55:57.090Z,23.49
2023-01-29T12:58:32.193Z,23.52
2023-01-29T13:01:05.015Z,23.55
2023-01-29T13:03:46.550Z,23.50
2023-01-29T13:06:17.911Z,23.52
2023-01-29T13:08:48.777Z,23.49
2023-01-29T13:11:21.840Z,23.47
2023-01-29T13:13:54.629Z,23.43
2023-01-29T13:16:26.710Z,23.42
2023-01-29T13:18:57.531Z,23.33
2023-01-29T13:21:29.324Z,23.35
2023-01-29T13:24:00.143Z,23.35
2023-01-29T13:26:27.442Z,23.25
2023-01-29T13:28:56.090Z,23.29
2023-01-29T13:31:34.930Z,23.31
2023-01-29T13:34:09.998Z,23.23
2023-01-29T13:36:41.639Z,23.31
2023-01-29T13:39:20.494Z,23.27
2023-01-29T13:41:47.940Z,23.21
2023-01-29T13:44:22.726Z,23.08
2023-01-29T13:46:54.991Z,23.13
2023-01-29T13:49:30.761Z,23.15
2023-01-29T13:51:59.449Z,23.11
2023-01-29T13:54:27.221Z,23.17
2023-01-29T13:56:59.688Z,23.17
2023-01-29T13:59:52.837Z,23.17
2023-01-29T14:02:25.209Z,23.20
2023-01-29T14:05:12.635Z,23.15
2023-01-29T14:07:49.498Z,23.14
2023-01-29T14:10:19.609Z,23.13
2023-01-29T14:12:49.449Z,23.12
2023-01-29T14:15:32.405Z,23.08
2023-01-29T14:18:06.614Z,23.08
2023-01-29T14:20:45.940Z,23.06
2023-01-29T14:23:28.107Z,23.07
2023-01-29T14:25:56.165Z,23.01
2023-01-29T14:28:26.849Z,23.00
2023-01-29T14:30:55.624Z,22.94
2023-01-29T14:33:27.387Z,22.97
2023-01-29T14:35:56.780Z,22.98
2023-01-29T14:38:27.750Z,22.97
2023-01-29T14:41:16.297Z,22.95
2023-01-29T14:43:43.425Z,23.03
2023-01-29T14:46:44.896Z,23.06
2023-01-29T14:49:12.020Z,23.06
2023-01-29T14:51:43.896Z,23.02
2023-01-29T14:54:27.845Z,23.02
2023-01-29T14:56:59.398Z,23.01
2023-01-29T14:59:32.892Z,22.98
2023-01-29T15:02:11.916Z,23.17
2023-01-29T15:04:43.481Z,23.30
2023-01-29T15:07:23.158Z,23.50
2023-01-29T15:10:13.300Z,23.63
2023-01-29T15:12:48.340Z,23.69
2023-01-29T15:15:18.886Z,23.78
2023-01-29T15:17:56.596Z,23.59
2023-01-29T15:20:30.464Z,23.75
2023-01-29T15:22:57.690Z,23.72
2023-01-29T15:25:25.706Z,23.64
2023-01-29T15:27:54.731Z,23.65
2023-01-29T15:30:29.092Z,23.67
2023-01-29T15:32:58.203Z,23.77
2023-01-29T15:35:28.890Z,23.87
2023-01-29T15:38:01.443Z,23.83
2023-01-29T15:40:29.015Z,23.89
2023-01-29T15:42:56.174Z,23.85
2023-01-29T15:45:27.107Z,23.81
2023-01-29T15:47:58.161Z,23.81
2023-01-29T15:50:25.523Z,23.86
2023-01-29T15:52:54.572Z,23.94
2023-01-29T15:55:23.832Z,23.93
2023-01-29T15:57:51.275Z,24.01
2023-01-29T16:00:22.839Z,24.13
2023-01-29T16:02:50.143Z,24.31
2023-01-29T16:05:21.806Z,24.42
2023-01-29T16:07:51.105Z,24.34
2023-01-29T16:10:20.298Z,24.28
2023-01-29T16:12:49.412Z,24.19
2023-01-29T16:15:23.641Z,24.20
2023-01-29T16:17:50.815Z,24.17
2023-01-29T16:20:32.475Z,24.21
2023-01-29T16:23:00.328Z,24.14
2023-01-29T16:25:29.933Z,24.07
2023-01-29T16:27:57.482Z,24.02
2023-01-29T16:30:26.558Z,24.02
2023-01-29T16:33:01.637Z,23.98
2023-01-29T16:35:30.854Z,23.95
2023-01-29T16:38:02.858Z,23.87
2023-01-29T16:40:32.331Z,23.85
2023-01-29T16:43:42.520Z,23.80
2023-01-29T16:46:18.931Z,23.78
2023-01-29T16:48:47.124Z,23.75
2023-01-29T16:51:23.608Z,23.69
2023-01-29T16:53:59.633Z,23.70
2023-01-29T16:56:30.024Z,23.61
2023-01-29T16:58:57.945Z,23.48
2023-01-29T17:01:28.820Z,23.44
2023-01-29T17:04:10.240Z,23.47
2023-01-29T17:06:42.708Z,23.47
2023-01-29T17:09:20.993Z,23.45
2023-01-29T17:11:53.569Z,23.49
2023-01-29T17:14:20.657Z,23.47
2023-01-29T17:16:50.637Z,23.46
2023-01-29T17:19:19.280Z,23.39
2023-01-29T17:21:47.848Z,23.44
2023-01-29T17:24:14.985Z,23.39
2023-01-29T17:26:42.556Z,23.36
2023-01-29T17:29:14.341Z,23.37
2023-01-29T17:31:41.734Z,23.35
2023-01-29T17:34:11.387Z,23.34
2023-01-29T17:36:38.638Z,23.32
2023-01-29T17:39:15.194Z,23.31
2023-01-29T17:41:46.536Z,23.29
2023-01-29T17:44:14.420Z,23.23
2023-01-29T17:46:41.548Z,23.21
2023-01-29T17:49:19.975Z,23.17
2023-01-29T17:51:47.096Z,23.21
2023-01-29T17:54:15.902Z,23.12
2023-01-29T17:56:43.025Z,23.10
2023-01-29T17:59:14.412Z,23.12
2023-01-29T18:01:41.663Z,23.12
2023-01-29T18:04:08.860Z,23.17
2023-01-29T18:06:36.340Z,23.17
2023-01-29T18:09:04.184Z,23.14
2023-01-29T18:11:32.883Z,23.18
2023-01-29T18:14:02.682Z,23.15
2023-01-29T18:16:41.244Z,23.12
2023-01-29T18:19:14.054Z,23.10
2023-01-29T18:21:41.165Z,23.11
2023-01-29T18:24:08.536Z,23.10
2023-01-29T18:26:37.114Z,23.09
2023-01-29T18:29:04.839Z,23.08
2023-01-29T18:31:32.082Z,23.06
2023-01-29T18:33:59.409Z,23.03
2023-01-29T18:36:26.550Z,23.03
2023-01-29T18:38:53.709Z,22.96
2023-01-29T18:41:20.876Z,22.97
2023-01-29T18:43:49.315Z,22.97
2023-01-29T18:46:16.587Z,22.95
2023-01-29T18:48:43.776Z,22.90
2023-01-29T18:51:10.897Z,22.91
2023-01-29T18:53:38.209Z,22.96
2023-01-29T18:56:06.906Z,23.00
2023-01-29T18:58:36.108Z,23.11
2023-01-29T19:01:07.144Z,23.23
2023-01-29T19:03:34.412Z,23.34
2023-01-29T19:06:02.089Z,23.33
2023-01-29T19:08:29.300Z,23.30
2023-01-29T19:10:56.432Z,23.32
2023-01-29T19:13:23.542Z,23.34
2023-01-29T19:15:50.814Z,23.36
2023-01-29T19:18:19.488Z,23.34
2023-01-29T19:20:46.589Z,23.26
2023-01-29T19:23:13.727Z,23.25
2023-01-29T19:25:40.829Z,23.22
2023-01-29T19:28:08.052Z,23.16
2023-01-29T19:30:35.351Z,23.13
2023-01-29T19:33:02.513Z,23.10
2023-01-29T19:35:30.980Z,23.09
2023-01-29T19:37:59.322Z,23.08
2023-01-29T19:40:26.665Z,23.09
2023-01-29T19:42:54.029Z,23.13
2023-01-29T19:45:23.697Z,23.17
2023-01-29T19:48:08.396Z,23.18
2023-01-29T19:50:36.897Z,23.15
2023-01-29T19:53:03.985Z,23.13
2023-01-29T19:55:31.108Z,23.09
2023-01-29T19:57:58.321Z,23.08
2023-01-29T20:00:25.915Z,23.10
2023-01-29T20:02:53.027Z,23.05
2023-01-29T20:05:20.410Z,23.05
2023-01-29T20:07:49.365Z,23.04
2023-01-29T20:10:17.113Z,22.98
2023-01-29T20:12:45.538Z,22.99
2023-01-29T20:15:13.349Z,23.00
2023-01-29T20:17:40.652Z,22.92
2023-01-29T20:20:11.017Z,22.89
2023-01-29T20:22:38.170Z,22.86
2023-01-29T20:25:07.398Z,22.83
2023-01-29T20:27:34.531Z,22.80
2023-01-29T20:30:01.737Z,22.81
2023-01-29T20:32:28.812Z,22.80
2023-01-29T20:34:55.937Z,22.87
2023-01-29T20:37:23.039Z,22.87
2023-01-29T20:39:50.159Z,22.86
2023-01-29T20:42:18.802Z,22.89
2023-01-29T20:44:45.896Z,22.88
2023-01-29T20:47:13.046Z,22.83
2023-01-29T20:49:40.186Z,22.83
2023-01-29T20:52:07.360Z,22.81
2023-01-29T20:54:34.473Z,22.80
2023-01-29T20:57:01.669Z,22.79
2023-01-29T20:59:30.126Z,22.77
2023-01-29T21:01:57.285Z,22.76
2023-01-29T21:04:24.658Z,22.73
2023-01-29T21:06:51.809Z,22.74
2023-01-29T21:09:18.940Z,22.68
2023-01-29T21:11:46.062Z,22.68
2023-01-29T21:14:13.197Z,22.67
2023-01-29T21:16:41.851Z,22.65
2023-01-29T21:19:09.305Z,22.66
2023-01-29T21:21:36.599Z,22.64
2023-01-29T21:24:04.121Z,22.70
2023-01-29T21:26:31.482Z,22.73
2023-01-29T21:28:58.562Z,22.75
2023-01-29T21:31:25.747Z,22.77
2023-01-29T21:33:54.335Z,22.76
2023-01-29T21:36:21.446Z,22.67
2023-01-29T21:38:48.887Z,22.70
2023-01-29T21:41:16.025Z,22.70
2023-01-29T21:43:44.709Z,22.61
2023-01-29T21:46:12.176Z,22.62
2023-01-29T21:48:40.072Z,22.68
2023-01-29T21:51:08.623Z,22.65
2023-01-29T21:53:36.411Z,22.64
2023-01-29T21:56:05.333Z,22.66
2023-01-29T21:58:32.498Z,22.61
2023-01-29T22:01:36.498Z,22.59
2023-01-29T22:03:47.570Z,22.60
2023-01-29T22:06:16.632Z,22.56
2023-01-29T22:08:43.941Z,22.55
2023-01-29T22:11:11.246Z,22.53
2023-01-29T22:13:38.602Z,22.61
2023-01-29T22:16:06.314Z,22.65
2023-01-29T22:18:33.559Z,22.65
2023-01-29T22:21:00.996Z,22.65
2023-01-29T22:23:29.902Z,22.64
2023-01-29T22:26:02.644Z,22.63
2023-01-29T22:28:29.847Z,22.56
2023-01-29T22:31:00.714Z,22.57
2023-01-29T22:33:27.847Z,22.57
2023-01-29T22:35:55.404Z,22.54
2023-01-29T22:38:22.806Z,22.51
2023-01-29T22:40:51.679Z,22.56
2023-01-29T22:43:19.231Z,22.51
2023-01-29T22:45:46.456Z,22.54
2023-01-29T22:48:13.916Z,22.36
2023-01-29T22:50:41.365Z,22.45
2023-01-29T22:53:08.940Z,22.31
2023-01-29T22:55:36.041Z,22.41
2023-01-29T22:58:04.515Z,22.40
2023-01-29T23:00:31.898Z,22.44
2023-01-29T23:02:59.007Z,22.44
2023-01-29T23:05:26.110Z,22.47
2023-01-29T23:07:53.187Z,22.50
2023-01-29T23:10:20.351Z,22.51
2023-01-29T23:12:47.460Z,22.50
2023-01-29T23:15:16.027Z,22.53
2023-01-29T23:17:43.210Z,22.52
2023-01-29T23:20:11.731Z,22.43
2023-01-29T23:22:38.834Z,22.50
2023-01-29T23:25:06.743Z,22.49
2023-01-29T23:27:33.850Z,22.45
2023-01-29T23:30:00.958Z,22.44
2023-01-29T23:32:29.626Z,22.46
2023-01-29T23:34:56.728Z,22.45
2023-01-29T23:37:23.892Z,22.41
2023-01-29T23:39:51.350Z,22.37
2023-01-29T23:42:18.702Z,22.33
2023-01-29T23:44:45.816Z,22.34
2023-01-29T23:47:12.933Z,22.33
2023-01-29T23:49:41.412Z,22.31
2023-01-29T23:52:08.497Z,22.25
2023-01-29T23:54:35.626Z,22.32
2023-01-29T23:57:02.732Z,22.34
2023-01-29T23:59:29.906Z,22.38
